createdAt,value
2019-05-17T00:00:47.563Z,100810.64
2019-05-17T00:03:24.315Z,100804.33
2019-05-17T00:05:57.502Z,100806.14
2019-05-17T00:08:34.305Z,100801.03
2019-05-17T00:11:02.586Z,100803.70
2019-05-17T00:13:34.350Z,100801.88
2019-05-17T00:16:07.221Z,100799.09
2019-05-17T00:18:39.115Z,100795.69
2019-05-17T00:21:12.132Z,100790.11
2019-05-17T00:23:46.969Z,100786.70
2019-05-17T00:26:18.936Z,100779.41
2019-05-17T00:28:50.744Z,100775.52
2019-05-17T00:31:22.487Z,100776.86
2019-05-17T00:33:56.587Z,100764.95
2019-05-17T00:36:28.889Z,100761.14
2019-05-17T00:39:00.528Z,100767.25
2019-05-17T00:41:34.217Z,100772.59
2019-05-17T00:44:06.405Z,100768.95
2019-05-17T00:46:38.220Z,100767.88
2019-05-17T00:49:11.201Z,100763.75
2019-05-17T00:51:43.046Z,100761.44
2019-05-17T00:54:14.792Z,100755.13
2019-05-17T00:56:46.815Z,100753.19
2019-05-17T00:59:18.553Z,100750.88
2019-05-17T01:01:50.394Z,100745.53
2019-05-17T01:04:22.157Z,100745.64
2019-05-17T01:06:56.161Z,100737.55
2019-05-17T01:09:27.459Z,100734.09
2019-05-17T01:11:59.186Z,100737.02
2019-05-17T01:14:31.028Z,100744.83
2019-05-17T01:17:07.225Z,100746.17
2019-05-17T01:19:39.085Z,100742.23
2019-05-17T01:22:10.828Z,100735.23
2019-05-17T01:24:42.669Z,100741.91
2019-05-17T01:27:14.421Z,100736.97
2019-05-17T01:29:47.728Z,100732.37
2019-05-17T01:32:19.840Z,100724.72
2019-05-17T01:34:51.486Z,100718.66
2019-05-17T01:37:23.225Z,100725.23
2019-05-17T01:39:57.243Z,100719.52
2019-05-17T01:42:28.605Z,100712.23
2019-05-17T01:45:00.343Z,100715.64
2019-05-17T01:47:32.390Z,100719.94
2019-05-17T01:50:06.952Z,100719.08
2019-05-17T01:52:38.695Z,100730.50
2019-05-17T01:55:11.373Z,100727.71
2019-05-17T01:57:43.222Z,100722.25
2019-05-17T02:00:17.542Z,100721.28
2019-05-17T02:02:53.439Z,100714.60
2019-05-17T02:05:27.343Z,100715.20
2019-05-17T02:07:58.791Z,100712.53
2019-05-17T02:10:30.529Z,100715.20
2019-05-17T02:13:02.278Z,100713.38
2019-05-17T02:15:34.122Z,100704.88
2019-05-17T02:18:07.183Z,100707.05
2019-05-17T02:20:39.424Z,100708.95
2019-05-17T02:23:11.169Z,100706.16
2019-05-17T02:25:43.086Z,100713.44
2019-05-17T02:28:14.734Z,100709.67
2019-05-17T02:30:46.744Z,100706.02
2019-05-17T02:33:18.595Z,100707.72
2019-05-17T02:35:53.411Z,100704.31
2019-05-17T02:38:23.880Z,100708.32
2019-05-17T02:40:55.625Z,100714.52
2019-05-17T02:43:27.843Z,100711.96
2019-05-17T02:45:59.483Z,100703.58
2019-05-17T02:48:33.812Z,100706.62
2019-05-17T02:51:04.687Z,100708.58
2019-05-17T02:53:36.325Z,100699.22
2019-05-17T02:56:13.033Z,100698.73
2019-05-17T02:58:43.832Z,100688.66
2019-05-17T03:01:16.165Z,100691.64
2019-05-17T03:03:47.919Z,100696.50
2019-05-17T03:06:22.572Z,100687.38
2019-05-17T03:08:54.053Z,100686.28
2019-05-17T03:11:25.705Z,100686.03
2019-05-17T03:13:57.434Z,100682.50
2019-05-17T03:16:29.178Z,100676.39
2019-05-17T03:19:04.301Z,100675.17
2019-05-17T03:21:34.264Z,100672.79
2019-05-17T03:24:06.640Z,100672.55
2019-05-17T03:26:38.171Z,100667.34
2019-05-17T03:29:13.365Z,100669.42
2019-05-17T03:31:51.223Z,100670.64
2019-05-17T03:34:18.026Z,100671.89
2019-05-17T03:36:55.754Z,100675.89
2019-05-17T03:39:23.576Z,100674.20
2019-05-17T03:41:55.425Z,100676.52
2019-05-17T03:44:28.405Z,100672.69
2019-05-17T03:47:02.407Z,100669.16
2019-05-17T03:49:33.694Z,100674.03
2019-05-17T03:52:05.612Z,100673.11
2019-05-17T03:54:37.264Z,100677.98
2019-05-17T03:57:08.997Z,100671.81
2019-05-17T03:59:43.113Z,100672.56
2019-05-17T04:02:15.939Z,100671.86
2019-05-17T04:04:47.688Z,100664.22
2019-05-17T04:07:19.427Z,100665.95
2019-05-17T04:09:53.188Z,100665.10
2019-05-17T04:12:24.501Z,100665.98
2019-05-17T04:14:56.239Z,100662.70
2019-05-17T04:17:27.987Z,100665.25
2019-05-17T04:20:02.970Z,100664.67
2019-05-17T04:22:33.363Z,100672.09
2019-05-17T04:25:06.355Z,100668.20
2019-05-17T04:27:38.084Z,100670.63
2019-05-17T04:30:12.516Z,100673.06
2019-05-17T04:32:44.827Z,100684.86
2019-05-17T04:35:16.795Z,100681.48
2019-05-17T04:37:48.688Z,100680.86
2019-05-17T04:40:23.100Z,100673.83
2019-05-17T04:42:53.868Z,100670.05
2019-05-17T04:45:26.582Z,100670.46
2019-05-17T04:47:58.323Z,100675.09
2019-05-17T04:50:33.257Z,100658.04
2019-05-17T04:53:03.646Z,100647.81
2019-05-17T04:55:35.785Z,100654.47
2019-05-17T04:58:07.530Z,100651.95
2019-05-17T05:00:39.263Z,100653.39
2019-05-17T05:03:12.754Z,100651.03
2019-05-17T05:05:44.600Z,100654.45
2019-05-17T05:08:16.363Z,100652.28
2019-05-17T05:10:48.141Z,100644.28
2019-05-17T05:13:22.516Z,100645.80
2019-05-17T05:15:53.234Z,100644.64
2019-05-17T05:18:24.993Z,100643.35
2019-05-17T05:20:56.838Z,100639.01
2019-05-17T05:23:28.475Z,100633.87
2019-05-17T05:26:02.779Z,100630.50
2019-05-17T05:28:34.975Z,100640.48
2019-05-17T05:31:06.845Z,100627.25
2019-05-17T05:33:41.968Z,100628.88
2019-05-17T05:36:13.783Z,100629.82
2019-05-17T05:38:45.419Z,100626.66
2019-05-17T05:41:17.169Z,100623.47
2019-05-17T05:43:49.011Z,100615.16
2019-05-17T05:46:22.391Z,100621.73
2019-05-17T05:48:54.303Z,100621.06
2019-05-17T05:51:27.902Z,100629.87
2019-05-17T05:54:01.680Z,100631.03
2019-05-17T05:56:33.277Z,100630.16
2019-05-17T05:59:05.028Z,100624.70
2019-05-17T06:01:37.754Z,100616.37
2019-05-17T06:04:11.593Z,100623.61
2019-05-17T06:06:43.288Z,100618.06
2019-05-17T06:09:15.122Z,100622.12
2019-05-17T06:11:48.150Z,100621.44
2019-05-17T06:14:21.595Z,100620.64
2019-05-17T06:16:53.245Z,100621.48
2019-05-17T06:19:24.993Z,100627.08
2019-05-17T06:22:02.892Z,100618.50
2019-05-17T06:24:42.474Z,100622.88
2019-05-17T06:27:15.245Z,100625.83
2019-05-17T06:29:46.793Z,100622.46
2019-05-17T06:32:39.077Z,100617.60
2019-05-17T06:35:26.006Z,100617.86
2019-05-17T06:37:57.547Z,100614.21
2019-05-17T06:40:29.391Z,100612.06
2019-05-17T06:43:04.210Z,100610.86
2019-05-17T06:45:34.477Z,100612.86
2019-05-17T06:48:06.292Z,100616.83
2019-05-17T06:50:37.931Z,100607.50
2019-05-17T06:53:12.126Z,100615.54
2019-05-17T06:55:45.108Z,100613.29
2019-05-17T06:58:16.994Z,100618.08
2019-05-17T07:00:49.766Z,100619.11
2019-05-17T07:03:21.751Z,100621.89
2019-05-17T07:05:55.150Z,100623.83
2019-05-17T07:08:26.687Z,100622.29
2019-05-17T07:10:59.748Z,100622.78
2019-05-17T07:13:32.433Z,100624.09
2019-05-17T07:16:04.111Z,100623.44
2019-05-17T07:18:36.271Z,100625.44
2019-05-17T07:21:09.999Z,100634.41
2019-05-17T07:23:42.020Z,100625.88
2019-05-17T07:26:13.950Z,100628.05
2019-05-17T07:28:45.707Z,100629.48
2019-05-17T07:31:20.265Z,100625.61
2019-05-17T07:33:50.799Z,100629.16
2019-05-17T07:36:22.547Z,100624.81
2019-05-17T07:38:54.315Z,100624.31
2019-05-17T07:41:26.049Z,100621.67
2019-05-17T07:43:57.793Z,100621.66
2019-05-17T07:46:29.555Z,100623.67
2019-05-17T07:49:02.228Z,100623.02
2019-05-17T07:51:39.443Z,100623.59
2019-05-17T07:54:12.595Z,100627.48
2019-05-17T07:56:44.335Z,100627.70
2019-05-17T07:59:19.945Z,100620.52
2019-05-17T08:01:54.294Z,100626.17
2019-05-17T08:04:26.028Z,100622.44
2019-05-17T08:06:59.843Z,100631.17
2019-05-17T08:09:31.382Z,100625.62
2019-05-17T08:12:03.150Z,100626.23
2019-05-17T08:14:34.906Z,100621.32
2019-05-17T08:17:06.677Z,100629.08
2019-05-17T08:19:40.273Z,100617.95
2019-05-17T08:22:11.997Z,100625.53
2019-05-17T08:24:43.751Z,100626.19
2019-05-17T08:27:15.496Z,100622.36
2019-05-17T08:29:49.754Z,100619.48
2019-05-17T08:32:20.979Z,100618.05
2019-05-17T08:34:52.628Z,100609.11
2019-05-17T08:37:24.486Z,100614.87
2019-05-17T08:39:56.118Z,100615.28
2019-05-17T08:42:29.991Z,100610.85
2019-05-17T08:45:01.578Z,100622.20
2019-05-17T08:47:34.268Z,100621.86
2019-05-17T08:50:11.211Z,100624.48
2019-05-17T08:52:42.918Z,100627.88
2019-05-17T08:55:15.780Z,100624.02
2019-05-17T08:57:49.879Z,100633.29
2019-05-17T09:00:21.112Z,100634.37
2019-05-17T09:02:52.789Z,100622.02
2019-05-17T09:05:24.540Z,100617.63
2019-05-17T09:07:56.366Z,100618.64
2019-05-17T09:10:29.957Z,100621.07
2019-05-17T09:13:02.776Z,100621.34
2019-05-17T09:15:41.029Z,100610.70
2019-05-17T09:18:14.239Z,100614.90
2019-05-17T09:20:46.085Z,100610.73
2019-05-17T09:23:19.691Z,100616.92
2019-05-17T09:25:51.514Z,100614.74
2019-05-17T09:28:24.791Z,100619.84
2019-05-17T09:30:56.432Z,100611.67
2019-05-17T09:33:30.007Z,100609.63
2019-05-17T09:36:01.941Z,100606.14
2019-05-17T09:38:33.705Z,100608.55
2019-05-17T09:41:09.219Z,100609.91
2019-05-17T09:43:41.347Z,100607.36
2019-05-17T09:46:13.745Z,100615.56
2019-05-17T09:48:47.027Z,100609.66
2019-05-17T09:51:21.262Z,100602.23
2019-05-17T09:53:57.134Z,100601.91
2019-05-17T09:56:30.147Z,100596.45
2019-05-17T09:59:03.120Z,100593.94
2019-05-17T10:01:35.753Z,100589.89
2019-05-17T10:04:07.522Z,100588.11
2019-05-17T10:06:40.101Z,100592.38
2019-05-17T10:09:12.231Z,100585.64
2019-05-17T10:11:43.999Z,100576.95
2019-05-17T10:14:27.491Z,100580.73
2019-05-17T10:16:49.112Z,100580.03
2019-05-17T10:19:23.617Z,100581.39
2019-05-17T10:21:55.770Z,100579.55
2019-05-17T10:24:36.023Z,100579.35
2019-05-17T10:27:00.993Z,100583.02
2019-05-17T10:29:32.745Z,100579.12
2019-05-17T10:32:04.486Z,100580.19
2019-05-17T10:34:36.336Z,100574.38
2019-05-17T10:37:10.308Z,100569.56
2019-05-17T10:39:41.891Z,100580.63
2019-05-17T10:42:13.730Z,100578.50
2019-05-17T10:44:47.748Z,100585.30
2019-05-17T10:47:20.015Z,100583.55
2019-05-17T10:49:51.772Z,100585.23
2019-05-17T10:52:25.198Z,100585.05
2019-05-17T10:54:56.816Z,100579.92
2019-05-17T10:57:30.270Z,100589.73
2019-05-17T11:00:01.901Z,100584.47
2019-05-17T11:02:34.725Z,100581.73
2019-05-17T11:05:10.388Z,100585.47
2019-05-17T11:07:41.489Z,100584.67
2019-05-17T11:10:14.212Z,100588.40
2019-05-17T11:12:45.869Z,100586.37
2019-05-17T11:15:17.959Z,100586.37
2019-05-17T11:17:49.501Z,100585.73
2019-05-17T11:20:22.103Z,100583.89
2019-05-17T11:22:53.843Z,100583.09
2019-05-17T11:25:25.615Z,100585.77
2019-05-17T11:27:57.360Z,100582.26
2019-05-17T11:30:29.137Z,100584.11
2019-05-17T11:33:00.870Z,100585.48
2019-05-17T11:35:32.786Z,100578.39
2019-05-17T11:38:05.408Z,100581.94
2019-05-17T11:40:37.050Z,100585.80
2019-05-17T11:43:08.807Z,100589.38
2019-05-17T11:45:40.564Z,100590.20
2019-05-17T11:48:12.313Z,100584.13
2019-05-17T11:50:45.047Z,100584.42
2019-05-17T11:53:16.798Z,100586.78
2019-05-17T11:55:48.580Z,100590.84
2019-05-17T11:58:20.412Z,100597.30
2019-05-17T12:00:53.054Z,100591.08
2019-05-17T12:03:24.774Z,100590.70
2019-05-17T12:05:56.524Z,100595.95
2019-05-17T12:08:29.309Z,100594.44
2019-05-17T12:11:01.321Z,100602.03
2019-05-17T12:13:33.584Z,100601.81
2019-05-17T12:16:05.342Z,100598.81
2019-05-17T12:18:39.419Z,100601.51
2019-05-17T12:21:15.414Z,100597.69
2019-05-17T12:23:47.096Z,100608.39
2019-05-17T12:26:18.872Z,100599.53
2019-05-17T12:28:50.808Z,100600.38
2019-05-17T12:31:22.676Z,100598.91
2019-05-17T12:33:54.402Z,100608.00
2019-05-17T12:36:26.505Z,100601.89
2019-05-17T12:39:02.658Z,100599.02
2019-05-17T12:41:37.217Z,100599.31
2019-05-17T12:44:08.858Z,100600.15
2019-05-17T12:46:41.991Z,100598.92
2019-05-17T12:49:16.832Z,100597.73
2019-05-17T12:51:50.020Z,100600.55
2019-05-17T12:54:22.653Z,100591.55
2019-05-17T12:56:54.431Z,100592.39
2019-05-17T12:59:26.226Z,100585.09
2019-05-17T13:01:58.084Z,100590.53
2019-05-17T13:04:30.985Z,100587.48
2019-05-17T13:07:02.741Z,100591.83
2019-05-17T13:09:34.506Z,100592.33
2019-05-17T13:12:06.192Z,100592.53
2019-05-17T13:14:37.939Z,100593.80
2019-05-17T13:17:09.714Z,100588.91
2019-05-17T13:19:41.475Z,100594.79
2019-05-17T13:22:13.254Z,100593.18
2019-05-17T13:24:45.008Z,100594.20
2019-05-17T13:27:16.785Z,100592.84
2019-05-17T13:29:48.557Z,100598.17
2019-05-17T13:32:20.325Z,100604.83
2019-05-17T13:34:51.984Z,100602.58
2019-05-17T13:37:23.745Z,100608.24
2019-05-17T13:39:55.522Z,100600.87
2019-05-17T13:42:27.601Z,100602.91
2019-05-17T13:44:59.650Z,100596.37
2019-05-17T13:47:32.420Z,100596.73
2019-05-17T13:50:05.777Z,100594.31
2019-05-17T13:52:37.455Z,100598.86
2019-05-17T13:55:09.921Z,100586.13
2019-05-17T13:57:41.630Z,100588.56
2019-05-17T14:00:13.800Z,100588.16
2019-05-17T14:02:45.644Z,100584.12
2019-05-17T14:05:18.042Z,100579.11
2019-05-17T14:07:50.531Z,100584.23
2019-05-17T14:10:27.683Z,100574.39
2019-05-17T14:12:56.716Z,100579.87
2019-05-17T14:15:28.466Z,100579.00
2019-05-17T14:18:00.234Z,100573.19
2019-05-17T14:20:32.002Z,100567.41
2019-05-17T14:23:03.896Z,100569.88
2019-05-17T14:25:35.454Z,100565.16
2019-05-17T14:28:07.201Z,100570.67
2019-05-17T14:30:45.225Z,100562.94
2019-05-17T14:33:16.786Z,100564.09
2019-05-17T14:35:48.335Z,100560.72
2019-05-17T14:38:20.094Z,100558.48
2019-05-17T14:41:08.680Z,100558.20
2019-05-17T14:43:25.433Z,100552.92
2019-05-17T14:45:57.193Z,100555.12
2019-05-17T14:48:28.954Z,100549.50
2019-05-17T14:51:01.942Z,100546.12
2019-05-17T14:53:33.713Z,100547.97
2019-05-17T14:56:06.985Z,100539.48
2019-05-17T14:58:40.403Z,100541.79
2019-05-17T15:01:12.085Z,100545.11
2019-05-17T15:03:45.358Z,100543.67
2019-05-17T15:06:17.110Z,100540.78
2019-05-17T15:08:48.745Z,100541.86
2019-05-17T15:11:20.603Z,100542.70
2019-05-17T15:13:52.464Z,100536.55
2019-05-17T15:16:25.572Z,100534.73
2019-05-17T15:18:57.430Z,100538.86
2019-05-17T15:21:29.181Z,100534.97
2019-05-17T15:24:02.962Z,100535.70
2019-05-17T15:26:36.331Z,100524.52
2019-05-17T15:29:08.165Z,100530.86
2019-05-17T15:31:51.736Z,100522.97
2019-05-17T15:34:40.351Z,100525.17
2019-05-17T15:37:11.800Z,100521.85
2019-05-17T15:39:50.443Z,100515.61
2019-05-17T15:42:24.512Z,100515.11
2019-05-17T15:44:56.241Z,100514.31
2019-05-17T15:47:28.803Z,100513.31
2019-05-17T15:50:00.696Z,100514.54
2019-05-17T15:52:33.751Z,100508.80
2019-05-17T15:55:08.354Z,100510.61
2019-05-17T15:57:46.259Z,100506.38
2019-05-17T16:00:21.825Z,100500.64
2019-05-17T16:03:02.220Z,100501.27
2019-05-17T16:05:36.725Z,100500.98
2019-05-17T16:08:08.565Z,100495.62
2019-05-17T16:10:40.606Z,100492.92
2019-05-17T16:13:12.705Z,100496.25
2019-05-17T16:15:44.574Z,100486.73
2019-05-17T16:18:16.455Z,100492.98
2019-05-17T16:20:50.176Z,100486.75
2019-05-17T16:23:24.544Z,100493.67
2019-05-17T16:25:56.358Z,100488.42
2019-05-17T16:28:28.117Z,100482.98
2019-05-17T16:30:59.903Z,100482.69
2019-05-17T16:33:32.114Z,100484.72
2019-05-17T16:36:08.023Z,100487.38
2019-05-17T16:38:43.086Z,100477.24
2019-05-17T16:41:14.886Z,100486.41
2019-05-17T16:43:46.637Z,100483.98
2019-05-17T16:46:19.636Z,100488.33
2019-05-17T16:48:51.698Z,100488.37
2019-05-17T16:51:27.916Z,100492.72
2019-05-17T16:54:05.895Z,100490.73
2019-05-17T16:56:41.170Z,100486.42
2019-05-17T16:59:14.663Z,100492.00
2019-05-17T17:01:47.407Z,100492.96
2019-05-17T17:04:20.074Z,100487.61
2019-05-17T17:06:51.821Z,100487.09
2019-05-17T17:09:26.819Z,100488.73
2019-05-17T17:12:02.302Z,100491.42
2019-05-17T17:14:39.118Z,100491.25
2019-05-17T17:17:19.849Z,100489.55
2019-05-17T17:19:51.516Z,100490.16
2019-05-17T17:22:25.729Z,100485.70
2019-05-17T17:24:57.842Z,100488.06
2019-05-17T17:27:29.514Z,100491.38
2019-05-17T17:30:01.296Z,100485.97
2019-05-17T17:32:33.060Z,100481.39
2019-05-17T17:35:07.153Z,100482.86
2019-05-17T17:37:38.924Z,100472.70
2019-05-17T17:40:17.087Z,100478.03
2019-05-17T17:42:49.401Z,100483.06
2019-05-17T17:45:26.616Z,100485.36
2019-05-17T17:48:03.904Z,100491.39
2019-05-17T17:50:41.366Z,100488.45
2019-05-17T17:53:13.795Z,100486.48
2019-05-17T17:55:48.733Z,100492.84
2019-05-17T17:58:20.774Z,100498.66
2019-05-17T18:00:52.833Z,100495.08
2019-05-17T18:03:24.894Z,100497.33
2019-05-17T18:05:57.633Z,100497.39
2019-05-17T18:08:29.508Z,100498.17
2019-05-17T18:11:02.240Z,100499.64
2019-05-17T18:13:34.121Z,100500.05
2019-05-17T18:16:07.221Z,100500.05
2019-05-17T18:18:39.112Z,100507.28
2019-05-17T18:21:10.837Z,100504.86
2019-05-17T18:23:44.240Z,100511.48
2019-05-17T18:26:15.934Z,100508.86
2019-05-17T18:28:47.682Z,100518.64
2019-05-17T18:31:19.464Z,100522.60
2019-05-17T18:33:51.372Z,100527.63
2019-05-17T18:36:23.231Z,100529.55
2019-05-17T18:38:56.094Z,100526.62
2019-05-17T18:41:28.056Z,100532.83
2019-05-17T18:44:01.248Z,100535.17
2019-05-17T18:46:33.127Z,100544.57
2019-05-17T18:49:05.999Z,100539.55
2019-05-17T18:51:39.711Z,100544.20
2019-05-17T18:54:14.116Z,100546.67
2019-05-17T18:56:45.897Z,100552.84
2019-05-17T18:59:19.278Z,100552.77
2019-05-17T19:01:51.925Z,100558.94
2019-05-17T19:04:23.843Z,100563.39
2019-05-17T19:06:55.739Z,100561.38
2019-05-17T19:09:27.645Z,100560.78
2019-05-17T19:11:59.507Z,100561.27
2019-05-17T19:14:42.421Z,100563.73
2019-05-17T19:17:06.205Z,100565.56
2019-05-17T19:19:39.783Z,100562.16
2019-05-17T19:22:11.466Z,100565.80
2019-05-17T19:24:46.049Z,100564.22
2019-05-17T19:27:21.444Z,100553.38
2019-05-17T19:29:53.231Z,100561.28
2019-05-17T19:32:25.942Z,100557.53
2019-05-17T19:34:59.815Z,100555.35
2019-05-17T19:37:31.898Z,100557.16
2019-05-17T19:40:08.480Z,100557.77
2019-05-17T19:42:40.365Z,100558.84
2019-05-17T19:45:15.748Z,100561.90
2019-05-17T19:47:47.182Z,100554.95
2019-05-17T19:50:23.292Z,100555.77
2019-05-17T19:52:55.187Z,100560.76
2019-05-17T19:55:27.258Z,100551.98
2019-05-17T19:58:01.712Z,100556.11
2019-05-17T20:00:38.298Z,100549.77
2019-05-17T20:03:12.345Z,100555.84
2019-05-17T20:05:48.421Z,100547.21
2019-05-17T20:08:20.069Z,100549.24
2019-05-17T20:10:52.272Z,100552.64
2019-05-17T20:13:26.139Z,100552.15
2019-05-17T20:16:00.128Z,100556.73
2019-05-17T20:18:31.992Z,100556.36
2019-05-17T20:21:04.987Z,100551.98
2019-05-17T20:23:38.071Z,100560.36
2019-05-17T20:26:12.585Z,100555.74
2019-05-17T20:28:45.828Z,100556.96
2019-05-17T20:31:17.824Z,100550.49
2019-05-17T20:33:49.691Z,100551.21
2019-05-17T20:36:22.846Z,100543.36
2019-05-17T20:38:54.646Z,100546.02
2019-05-17T20:41:27.988Z,100553.25
2019-05-17T20:44:01.111Z,100544.58
2019-05-17T20:46:34.237Z,100547.60
2019-05-17T20:49:07.248Z,100548.31
2019-05-17T20:51:44.156Z,100544.38
2019-05-17T20:54:15.946Z,100544.19
2019-05-17T20:56:50.728Z,100549.88
2019-05-17T20:59:23.385Z,100548.03
2019-05-17T21:01:55.447Z,100546.53
2019-05-17T21:04:27.431Z,100549.56
2019-05-17T21:06:59.303Z,100549.56
2019-05-17T21:09:32.645Z,100552.41
2019-05-17T21:12:04.447Z,100549.37
2019-05-17T21:14:37.390Z,100550.70
2019-05-17T21:17:10.213Z,100550.53
2019-05-17T21:19:45.213Z,100553.45
2019-05-17T21:22:20.154Z,100545.45
2019-05-17T21:24:53.262Z,100547.86
2019-05-17T21:27:30.550Z,100545.65
2019-05-17T21:30:03.567Z,100544.38
2019-05-17T21:32:40.725Z,100549.20
2019-05-17T21:35:15.246Z,100549.39
2019-05-17T21:37:48.283Z,100547.69
2019-05-17T21:40:21.677Z,100548.51
2019-05-17T21:42:56.196Z,100547.77
2019-05-17T21:45:27.972Z,100544.25
2019-05-17T21:47:59.747Z,100548.99
2019-05-17T21:50:31.528Z,100549.30
2019-05-17T21:53:03.872Z,100551.92
2019-05-17T21:55:35.619Z,100551.30
2019-05-17T21:58:07.374Z,100549.42
2019-05-17T22:00:51.461Z,100555.34
2019-05-17T22:03:24.459Z,100555.20
2019-05-17T22:05:56.116Z,100547.98
2019-05-17T22:08:27.872Z,100551.09
2019-05-17T22:10:59.643Z,100550.16
2019-05-17T22:13:31.403Z,100551.83
2019-05-17T22:16:18.477Z,100546.72
2019-05-17T22:18:38.659Z,100539.87
2019-05-17T22:21:10.593Z,100544.94
2019-05-17T22:23:42.463Z,100546.27
2019-05-17T22:26:14.210Z,100542.09
2019-05-17T22:28:45.979Z,100538.68
2019-05-17T22:31:17.794Z,100539.83
2019-05-17T22:33:49.447Z,100542.12
2019-05-17T22:36:21.217Z,100548.41
2019-05-17T22:38:52.980Z,100543.03
2019-05-17T22:41:24.709Z,100546.73
2019-05-17T22:43:57.152Z,100544.66
2019-05-17T22:46:35.940Z,100535.33
2019-05-17T22:49:02.754Z,100531.55
2019-05-17T22:51:34.507Z,100536.03
2019-05-17T22:54:06.267Z,100529.85
2019-05-17T22:56:44.101Z,100538.32
2019-05-17T22:59:11.640Z,100532.89
2019-05-17T23:01:43.389Z,100534.70
2019-05-17T23:04:15.131Z,100531.47
2019-05-17T23:06:49.682Z,100538.61
2019-05-17T23:09:21.431Z,100540.34
2019-05-17T23:11:53.172Z,100544.15
2019-05-17T23:14:25.020Z,100546.66
2019-05-17T23:16:56.763Z,100541.13
2019-05-17T23:19:28.513Z,100541.19
2019-05-17T23:22:00.247Z,100548.05
2019-05-17T23:24:31.992Z,100553.19
2019-05-17T23:27:03.805Z,100558.13
2019-05-17T23:29:35.541Z,100556.22
2019-05-17T23:32:07.280Z,100555.84
2019-05-17T23:34:40.738Z,100549.02
2019-05-17T23:37:12.682Z,100554.70
2019-05-17T23:39:44.431Z,100551.38
2019-05-17T23:42:17.342Z,100541.95
2019-05-17T23:44:49.183Z,100546.72
2019-05-17T23:47:20.935Z,100547.84
2019-05-17T23:49:52.678Z,100547.68
2019-05-17T23:52:24.614Z,100541.47
2019-05-17T23:54:57.367Z,100543.87
2019-05-17T23:57:29.208Z,100549.08
